Levelland, Texas
Current Conditions -  °F | °C
As of 2:53 AM on Monday 20 Oct 2014 (Local Time) from KLBB Reporting Station
Few Clouds Few Clouds  
Wind Chill: 57°   Ceiling: Unl
Heat Index: 57°   Visibility: 9mi
Dew Point: 54°   Wind: 3mph
Humidity: 89%   Direction: 140°SE
Pressure: 30.08"   Gusts: NA
Location:  33.59°N, 102.37°W
Report Text: KLBB 200753Z 14003KT 9SM FEW200 14/12 A3008 RMK AO2 SLP153 T01390122
Loading
Personal Weather Stations






























Interactive Weather Map
Tropical Storm Tracking
New forecast layout! Learn more

10-Day Weather Forecast

Advertisements
Track Severe Weather on mobile